Time;durP1;ratioP1;P1;durP2;ratioP2;P2;SDS_P1;SDS_P2;PMS_P1;PMS_P2;Temp;Humidity;BMP_temperature;BMP_pressure;BME280_temperature;BME280_humidity;BME280_pressure;Samples;Min_cycle;Max_cycle;Signal;HPM_P1;HPM_P2
2023/06/10 00:01:01;;;;;;;10.27;7.07;;;24.00;36.80;;;;;;5036812;28;20538;-89
2023/06/10 00:03:26;;;;;;;10.70;6.77;;;24.00;48.80;;;;;;5048901;28;20653;-90
2023/06/10 00:05:53;;;;;;;8.90;6.63;;;24.10;57.50;;;;;;5057012;28;20248;-88
2023/06/10 00:08:19;;;;;;;8.13;7.30;;;24.00;35.10;;;;;;5057184;28;20172;-80
2023/06/10 00:10:46;;;;;;;7.97;6.67;;;23.90;90.50;;;;;;5057504;28;20168;-83
2023/06/10 00:13:12;;;;;;;7.90;7.00;;;23.90;99.90;;;;;;5056702;28;20177;-90
2023/06/10 00:15:39;;;;;;;8.07;6.87;;;23.80;99.90;;;;;;5058108;28;20219;-86
2023/06/10 00:18:05;;;;;;;13.13;7.37;;;23.80;99.90;;;;;;5056759;28;20181;-88
2023/06/10 00:20:32;;;;;;;11.07;7.40;;;23.90;99.90;;;;;;5056028;28;20172;-87
2023/06/10 00:23:01;;;;;;;7.67;6.60;;;23.80;99.90;;;;;;5017779;28;1154835;-79
2023/06/10 00:25:26;;;;;;;8.23;6.80;;;23.70;99.90;;;;;;5064439;28;20476;-88
2023/06/10 00:27:52;;;;;;;7.67;6.83;;;23.70;99.90;;;;;;5065025;28;20173;-86
2023/06/10 00:30:18;;;;;;;7.67;6.80;;;23.70;99.90;;;;;;5068950;28;20168;-84
2023/06/10 00:32:43;;;;;;;9.73;6.43;;;23.70;99.90;;;;;;5060305;28;20173;-81
2023/06/10 00:35:10;;;;;;;8.57;7.57;;;23.70;99.90;;;;;;5060216;28;20183;-79
2023/06/10 00:37:36;;;;;;;8.97;6.67;;;23.70;99.90;;;;;;5058024;28;20537;-90
2023/06/10 00:40:03;;;;;;;9.10;7.37;;;23.70;99.90;;;;;;5039812;28;20173;-88
2023/06/10 00:42:29;;;;;;;8.33;6.77;;;23.70;99.90;;;;;;5058895;28;20176;-92
2023/06/10 00:44:55;;;;;;;9.97;7.20;;;23.70;99.90;;;;;;5060500;28;20295;-89
2023/06/10 00:47:21;;;;;;;9.33;7.10;;;23.60;99.90;;;;;;5060732;28;20173;-88
2023/06/10 00:49:47;;;;;;;10.00;7.50;;;23.70;99.90;;;;;;5057401;28;20184;-79
2023/06/10 00:52:16;;;;;;;7.80;7.00;;;23.50;99.90;;;;;;5057033;28;20165;-86
2023/06/10 00:54:44;;;;;;;8.50;7.10;;;23.40;99.90;;;;;;5056607;28;20701;-82
2023/06/10 00:57:13;;;;;;;8.00;7.13;;;23.40;99.90;;;;;;5057050;28;20158;-89
2023/06/10 00:59:41;;;;;;;7.40;6.67;;;23.40;99.90;;;;;;5056688;28;20184;-82
2023/06/10 01:02:07;;;;;;;8.53;7.40;;;23.40;99.90;;;;;;5056747;28;20171;-80
2023/06/10 01:04:33;;;;;;;7.77;6.97;;;23.30;99.90;;;;;;5039145;28;20200;-86
2023/06/10 01:07:12;;;;;;;9.93;7.90;;;23.30;99.90;;;;;;5057193;28;20248;-88
2023/06/10 01:10:05;;;;;;;8.63;7.70;;;23.30;99.90;;;;;;5056516;28;20249;-90
2023/06/10 01:12:41;;;;;;;8.50;7.50;;;23.30;99.90;;;;;;5056234;28;20208;-88
2023/06/10 01:15:09;;;;;;;10.47;7.53;;;23.30;99.90;;;;;;5038472;28;20198;-87
2023/06/10 01:17:53;;;;;;;8.80;6.90;;;23.30;99.90;;;;;;5038900;28;20169;-79
2023/06/10 01:20:19;;;;;;;7.60;6.90;;;23.30;99.90;;;;;;5059161;28;20180;-86
2023/06/10 01:22:45;;;;;;;8.23;7.40;;;23.30;99.90;;;;;;5065652;28;20165;-80
2023/06/10 01:25:11;;;;;;;10.30;7.33;;;23.10;99.90;;;;;;5071772;28;20210;-78
2023/06/10 01:27:39;;;;;;;8.00;7.20;;;23.10;99.90;;;;;;5054082;28;20180;-78
2023/06/10 01:30:15;;;;;;;7.90;7.10;;;23.10;99.90;;;;;;5066567;28;20192;-80
2023/06/10 01:32:47;;;;;;;8.27;7.40;;;23.10;99.90;;;;;;5062998;28;20161;-79
2023/06/10 01:35:15;;;;;;;9.23;7.43;;;23.00;99.90;;;;;;5071737;28;20164;-78
2023/06/10 01:37:45;;;;;;;9.23;7.60;;;23.00;99.90;;;;;;5044985;28;20178;-85
2023/06/10 01:40:13;;;;;;;8.63;7.20;;;22.90;99.90;;;;;;5062401;28;20177;-79
2023/06/10 01:42:45;;;;;;;8.80;6.87;;;22.90;99.90;;;;;;5063779;28;20198;-79
2023/06/10 01:45:12;;;;;;;8.30;7.23;;;22.90;99.90;;;;;;5058847;28;20208;-88
2023/06/10 01:47:50;;;;;;;10.17;7.23;;;22.90;99.90;;;;;;5059516;28;20223;-80
2023/06/10 01:50:19;;;;;;;7.27;6.40;;;23.00;99.90;;;;;;5056207;28;20214;-87
2023/06/10 01:52:47;;;;;;;8.83;6.97;;;22.90;99.90;;;;;;5039163;28;20168;-82
2023/06/10 01:55:15;;;;;;;8.13;6.80;;;22.90;99.90;;;;;;5057456;28;20183;-85
2023/06/10 01:57:41;;;;;;;9.33;7.30;;;22.90;99.90;;;;;;5038285;28;20238;-79
2023/06/10 02:00:07;;;;;;;12.17;7.23;;;22.90;99.90;;;;;;5060313;28;20259;-77
2023/06/10 02:02:34;;;;;;;7.80;7.00;;;22.90;99.90;;;;;;5052513;28;20208;-82
2023/06/10 02:05:00;;;;;;;8.30;7.00;;;23.00;99.90;;;;;;5063250;28;20215;-86
2023/06/10 02:07:31;;;;;;;9.77;7.47;;;23.00;99.90;;;;;;5069020;28;20172;-82
2023/06/10 02:10:00;;;;;;;8.50;7.43;;;23.00;99.90;;;;;;5067410;28;20168;-86
2023/06/10 02:12:25;;;;;;;8.87;7.40;;;23.00;99.90;;;;;;5059770;28;20672;-90
2023/06/10 02:14:51;;;;;;;7.43;6.73;;;23.00;99.90;;;;;;5057045;28;20177;-86
2023/06/10 02:17:19;;;;;;;8.97;6.73;;;23.00;99.90;;;;;;5057267;28;20175;-80
2023/06/10 02:19:52;;;;;;;8.00;7.20;;;23.00;99.90;;;;;;5062510;28;20168;-78
2023/06/10 02:22:21;;;;;;;8.37;7.40;;;23.00;99.90;;;;;;5070609;28;20164;-78
2023/06/10 02:24:47;;;;;;;9.50;6.90;;;22.90;99.90;;;;;;5077045;28;20246;-79
2023/06/10 02:27:16;;;;;;;8.80;7.57;;;23.00;99.90;;;;;;5077528;28;20156;-87
2023/06/10 02:29:45;;;;;;;8.90;7.70;;;22.90;99.90;;;;;;5071541;28;20184;-81
2023/06/10 02:32:12;;;;;;;9.17;7.33;;;23.00;99.90;;;;;;5070551;28;20165;-84
2023/06/10 02:34:38;;;;;;;8.00;7.20;;;22.90;99.90;;;;;;5064629;28;20559;-82
2023/06/10 02:37:09;;;;;;;8.67;7.80;;;23.00;99.90;;;;;;5055503;28;20210;-88
2023/06/10 02:40:27;;;;;;;7.53;6.73;;;22.80;99.90;;;;;;5055387;28;20172;-89
2023/06/10 02:42:53;;;;;;;9.27;7.63;;;22.80;99.90;;;;;;5055923;28;20162;-86
2023/06/10 02:45:19;;;;;;;9.83;7.13;;;22.80;99.90;;;;;;5055551;28;20231;-81
2023/06/10 02:47:45;;;;;;;9.33;7.97;;;22.80;99.90;;;;;;5055481;28;20168;-86
2023/06/10 02:50:11;;;;;;;10.27;7.77;;;22.70;99.90;;;;;;5055106;28;20170;-86
2023/06/10 02:52:37;;;;;;;8.53;7.03;;;22.70;99.90;;;;;;5063271;28;20136;-79
2023/06/10 02:55:03;;;;;;;10.10;7.40;;;22.60;99.90;;;;;;5069516;28;20176;-87
2023/06/10 02:57:29;;;;;;;16.30;8.40;;;22.50;99.90;;;;;;5073543;28;20182;-79
2023/06/10 02:59:54;;;;;;;8.90;7.63;;;22.50;99.90;;;;;;5056322;28;20220;-79
2023/06/10 03:02:21;;;;;;;9.43;8.00;;;22.60;99.90;;;;;;5074079;28;20533;-78
2023/06/10 03:04:47;;;;;;;8.70;7.77;;;22.50;99.90;;;;;;5075431;28;20204;-75
2023/06/10 03:07:16;;;;;;;10.87;7.27;;;22.50;99.90;;;;;;5072489;28;20164;-84
2023/06/10 03:09:44;;;;;;;9.87;7.63;;;22.50;99.90;;;;;;5068108;28;20165;-78
2023/06/10 03:12:16;;;;;;;8.87;7.97;;;22.40;99.90;;;;;;5062886;28;20175;-86
2023/06/10 03:14:45;;;;;;;10.50;7.50;;;22.40;99.90;;;;;;5068697;28;20180;-79
2023/06/10 03:17:12;;;;;;;9.40;7.63;;;22.40;99.90;;;;;;5076362;28;20180;-77
2023/06/10 03:19:38;;;;;;;8.80;7.90;;;22.30;99.90;;;;;;5076439;28;20242;-77
2023/06/10 03:22:09;;;;;;;8.87;7.97;;;22.20;99.90;;;;;;5079884;28;20198;-78
2023/06/10 03:24:36;;;;;;;11.63;7.67;;;22.20;99.90;;;;;;5076798;28;20228;-82
2023/06/10 03:27:04;;;;;;;9.93;7.80;;;22.20;99.90;;;;;;5064630;28;20222;-81
2023/06/10 03:29:32;;;;;;;8.53;7.50;;;22.20;99.90;;;;;;5058708;28;20237;-87
2023/06/10 03:31:59;;;;;;;10.37;8.00;;;22.10;99.90;;;;;;5040830;28;20575;-84
2023/06/10 03:34:24;;;;;;;8.87;7.97;;;22.20;99.90;;;;;;5058689;28;20178;-82
2023/06/10 03:36:50;;;;;;;10.03;7.83;;;22.10;99.90;;;;;;5058298;28;20172;-81
2023/06/10 03:39:16;;;;;;;8.93;7.90;;;22.10;99.90;;;;;;5059775;28;20174;-82
2023/06/10 03:41:42;;;;;;;9.17;8.27;;;22.20;99.90;;;;;;5059920;28;20159;-86
2023/06/10 03:44:07;;;;;;;12.57;8.57;;;22.20;99.90;;;;;;5058892;28;20207;-84
2023/06/10 03:46:33;;;;;;;11.47;7.67;;;22.10;99.90;;;;;;5041022;28;20699;-88
2023/06/10 03:49:02;;;;;;;9.57;8.03;;;22.20;99.90;;;;;;5058946;28;20171;-78
2023/06/10 03:51:29;;;;;;;9.27;8.03;;;22.10;99.90;;;;;;5060599;28;20168;-87
2023/06/10 03:53:55;;;;;;;9.87;8.50;;;22.00;99.90;;;;;;5059180;28;20171;-79
2023/06/10 03:56:21;;;;;;;9.33;8.13;;;22.00;1.00;;;;;;5059489;28;20200;-78
2023/06/10 03:58:47;;;;;;;9.03;7.97;;;22.00;1.00;;;;;;5057452;28;20209;-88
2023/06/10 04:01:17;;;;;;;9.27;8.37;;;22.00;1.00;;;;;;5057424;28;20175;-87
2023/06/10 04:03:43;;;;;;;11.37;8.70;;;22.00;1.00;;;;;;5057134;28;20599;-84
2023/06/10 04:06:09;;;;;;;10.97;8.33;;;21.90;1.00;;;;;;5058573;28;20174;-87
2023/06/10 04:08:35;;;;;;;13.43;8.07;;;21.90;1.00;;;;;;5059521;28;20642;-88
2023/06/10 04:11:02;;;;;;;9.30;8.30;;;21.90;1.00;;;;;;5058050;28;20181;-88
2023/06/10 04:13:27;;;;;;;12.77;8.30;;;21.90;1.00;;;;;;5057950;28;20175;-79
2023/06/10 04:15:54;;;;;;;11.00;8.03;;;21.90;1.00;;;;;;5057724;28;20668;-84
2023/06/10 04:18:21;;;;;;;9.87;7.83;;;21.80;1.00;;;;;;5058017;28;20175;-79
2023/06/10 04:20:47;;;;;;;10.97;8.50;;;21.80;1.00;;;;;;5056562;28;20162;-79
2023/06/10 04:23:13;;;;;;;9.60;8.07;;;21.80;1.00;;;;;;5041831;28;20192;-87
2023/06/10 04:25:38;;;;;;;14.57;8.77;;;21.70;1.00;;;;;;5046038;28;20209;-85
2023/06/10 04:28:04;;;;;;;9.87;7.83;;;21.70;1.00;;;;;;5062115;28;20189;-81
2023/06/10 04:30:31;;;;;;;10.13;9.03;;;21.70;1.00;;;;;;5079197;28;20164;-77
2023/06/10 04:32:57;;;;;;;9.53;8.17;;;21.70;1.00;;;;;;5077201;28;20151;-79
2023/06/10 04:35:23;;;;;;;9.57;8.27;;;21.70;1.00;;;;;;5078811;28;20150;-79
2023/06/10 04:37:48;;;;;;;9.53;8.50;;;21.70;1.00;;;;;;5077431;28;20156;-83
2023/06/10 04:40:20;;;;;;;10.90;7.97;;;21.70;1.00;;;;;;5069959;28;20224;-78
2023/06/10 04:42:52;;;;;;;8.73;7.77;;;21.60;1.00;;;;;;5069599;28;20174;-78
2023/06/10 04:45:20;;;;;;;10.27;9.27;;;21.70;1.00;;;;;;5073578;28;20202;-87
2023/06/10 04:47:48;;;;;;;9.47;8.57;;;21.60;1.00;;;;;;5060850;28;20166;-78
2023/06/10 04:50:34;;;;;;;11.13;8.77;;;21.70;1.00;;;;;;5070668;28;20144;-78
2023/06/10 04:53:00;;;;;;;9.40;8.40;;;21.70;1.00;;;;;;5042187;28;20191;-79
2023/06/10 04:55:29;;;;;;;12.03;8.60;;;21.70;1.00;;;;;;5060043;28;20159;-85
2023/06/10 04:57:55;;;;;;;9.30;8.30;;;21.70;1.00;;;;;;5058091;28;20149;-86
2023/06/10 05:00:21;;;;;;;11.20;9.43;;;21.70;1.00;;;;;;5058524;28;20195;-85
2023/06/10 05:02:51;;;;;;;9.20;8.13;;;21.70;1.00;;;;;;5056208;28;20162;-89
2023/06/10 05:05:18;;;;;;;10.27;8.33;;;21.80;1.00;;;;;;5058686;28;20206;-80
2023/06/10 05:07:43;;;;;;;14.23;9.30;;;21.90;1.00;;;;;;5047965;28;20167;-79
2023/06/10 05:10:11;;;;;;;9.77;8.77;;;22.00;1.00;;;;;;5054354;28;20166;-78
2023/06/10 05:12:40;;;;;;;10.63;8.60;;;22.00;1.00;;;;;;5048855;28;20256;-87
2023/06/10 05:15:12;;;;;;;10.13;8.50;;;22.00;1.00;;;;;;5061694;28;20178;-87
2023/06/10 05:17:56;;;;;;;10.17;8.67;;;22.00;1.00;;;;;;5057301;28;20177;-77
2023/06/10 05:20:22;;;;;;;10.47;7.80;;;22.00;1.00;;;;;;5057534;28;20188;-80
2023/06/10 05:22:47;;;;;;;9.13;8.33;;;22.10;1.00;;;;;;5056257;28;20186;-85
2023/06/10 05:25:13;;;;;;;10.23;8.67;;;22.20;1.00;;;;;;5056238;28;20675;-88
2023/06/10 05:27:40;;;;;;;8.37;7.57;;;22.20;1.00;;;;;;5055360;28;20168;-86
2023/06/10 05:30:07;;;;;;;9.37;8.00;;;22.30;1.00;;;;;;5055368;28;20267;-86
2023/06/10 05:32:33;;;;;;;11.80;9.00;;;22.30;1.00;;;;;;5055255;28;20563;-89
2023/06/10 05:35:00;;;;;;;10.27;7.73;;;22.30;1.00;;;;;;5055872;28;20181;-86
2023/06/10 05:37:25;;;;;;;9.67;8.40;;;22.50;1.00;;;;;;5055535;28;20170;-89
2023/06/10 05:39:51;;;;;;;8.87;7.83;;;22.40;1.00;;;;;;5056077;28;20171;-82
2023/06/10 05:42:18;;;;;;;9.53;8.60;;;22.40;1.00;;;;;;5055805;28;20574;-89
2023/06/10 05:44:43;;;;;;;8.90;8.00;;;22.40;1.00;;;;;;5040554;28;20206;-89
2023/06/10 05:47:09;;;;;;;9.27;8.37;;;22.50;1.00;;;;;;5062571;28;20770;-87
2023/06/10 05:49:35;;;;;;;11.47;8.00;;;22.50;1.00;;;;;;5058140;28;20257;-79
2023/06/10 05:52:00;;;;;;;9.63;7.93;;;22.50;99.90;;;;;;5056474;28;20174;-78
2023/06/10 05:54:26;;;;;;;9.10;8.20;;;22.60;1.00;;;;;;5068419;28;20193;-79
2023/06/10 05:56:52;;;;;;;11.83;8.27;;;22.60;1.00;;;;;;5070022;28;20172;-79
2023/06/10 05:59:17;;;;;;;8.80;7.90;;;22.70;1.00;;;;;;5066515;28;20238;-78
2023/06/10 06:01:43;;;;;;;10.30;8.33;;;22.90;99.90;;;;;;5056711;28;20165;-85
2023/06/10 06:04:09;;;;;;;10.30;8.40;;;22.90;99.90;;;;;;5057136;28;20191;-87
2023/06/10 06:06:38;;;;;;;10.37;8.30;;;23.00;99.90;;;;;;5055874;28;20215;-85
2023/06/10 06:09:04;;;;;;;8.67;7.67;;;23.00;99.90;;;;;;5055693;28;20163;-88
2023/06/10 06:11:30;;;;;;;11.73;8.03;;;22.90;99.90;;;;;;5055522;28;20377;-91
2023/06/10 06:13:56;;;;;;;11.30;8.43;;;22.90;99.90;;;;;;5055591;28;20652;-79
2023/06/10 06:16:22;;;;;;;11.40;8.30;;;23.00;99.90;;;;;;5054758;28;20259;-86
2023/06/10 06:18:47;;;;;;;8.40;7.60;;;23.00;99.90;;;;;;5061165;28;20206;-84
2023/06/10 06:21:13;;;;;;;9.47;8.53;;;22.90;99.90;;;;;;5063738;28;20235;-86
2023/06/10 06:23:41;;;;;;;9.70;8.10;;;22.90;99.90;;;;;;5061901;28;20551;-88
2023/06/10 06:26:06;;;;;;;8.57;7.67;;;22.90;99.90;;;;;;5061168;28;20754;-83
2023/06/10 06:28:32;;;;;;;10.37;8.17;;;23.00;99.90;;;;;;5058765;28;20651;-87
2023/06/10 06:30:59;;;;;;;9.13;8.07;;;23.10;99.90;;;;;;5055780;28;20225;-85
2023/06/10 06:33:40;;;;;;;10.47;8.43;;;23.10;99.90;;;;;;5056223;28;20172;-89
2023/06/10 06:36:07;;;;;;;9.67;8.30;;;23.30;99.90;;;;;;5056746;28;20168;-88
2023/06/10 06:38:33;;;;;;;9.53;7.50;;;23.30;99.90;;;;;;5055636;28;20682;-85
2023/06/10 06:41:02;;;;;;;8.87;7.97;;;23.20;99.90;;;;;;5056028;28;20219;-82
2023/06/10 06:43:30;;;;;;;10.50;7.50;;;23.30;99.90;;;;;;5056670;28;20176;-82
2023/06/10 06:45:57;;;;;;;9.57;7.80;;;23.40;99.90;;;;;;5059764;28;20193;-79
2023/06/10 06:48:23;;;;;;;8.47;7.63;;;23.60;99.90;;;;;;5060702;28;20224;-89
2023/06/10 06:50:49;;;;;;;10.73;7.63;;;23.70;99.90;;;;;;5062662;28;20188;-81
2023/06/10 06:53:18;;;;;;;10.10;7.43;;;23.60;99.90;;;;;;5062082;28;20197;-88
2023/06/10 06:55:44;;;;;;;8.90;7.73;;;23.70;99.90;;;;;;5044245;28;20263;-90
2023/06/10 06:58:10;;;;;;;11.37;7.87;;;23.70;99.90;;;;;;5064054;28;20200;-88
2023/06/10 07:00:35;;;;;;;9.77;7.67;;;23.70;99.90;;;;;;5064940;28;20165;-82
2023/06/10 07:03:01;;;;;;;10.10;7.57;;;23.80;99.90;;;;;;5065989;28;20192;-82
2023/06/10 07:05:27;;;;;;;12.53;8.07;;;23.80;99.90;;;;;;5067039;28;20546;-79
2023/06/10 07:08:13;;;;;;;11.00;7.63;;;24.00;99.90;;;;;;5068706;28;20175;-82
2023/06/10 07:10:39;;;;;;;8.77;7.27;;;24.00;99.90;;;;;;5065905;28;20234;-81
2023/06/10 07:13:08;;;;;;;8.47;7.07;;;24.10;99.90;;;;;;5070904;28;20194;-89
2023/06/10 07:15:33;;;;;;;10.17;7.63;;;24.20;99.90;;;;;;5068097;28;20212;-84
2023/06/10 07:17:59;;;;;;;8.80;7.63;;;24.20;99.90;;;;;;5080248;28;20171;-83
2023/06/10 07:20:25;;;;;;;7.70;6.97;;;24.50;99.90;;;;;;5077936;28;20177;-86
2023/06/10 07:22:50;;;;;;;11.33;7.63;;;24.60;99.90;;;;;;5063182;28;20204;-84
2023/06/10 07:25:17;;;;;;;8.07;7.10;;;24.70;99.90;;;;;;5065043;28;20208;-82
2023/06/10 07:27:43;;;;;;;7.77;6.97;;;24.80;99.90;;;;;;5060764;28;20173;-84
2023/06/10 07:30:18;;;;;;;8.40;6.73;;;24.90;44.10;;;;;;5060980;28;20187;-86
2023/06/10 07:33:10;;;;;;;8.87;7.13;;;24.90;17.50;;;;;;5059031;28;20156;-82
2023/06/10 07:35:36;;;;;;;7.70;6.80;;;25.00;35.70;;;;;;5074054;28;20169;-82
2023/06/10 07:38:02;;;;;;;8.70;7.10;;;25.00;1.00;;;;;;5068514;28;20244;-84
2023/06/10 07:40:28;;;;;;;9.00;6.70;;;25.10;1.00;;;;;;5063074;28;20196;-84
2023/06/10 07:42:55;;;;;;;9.50;6.87;;;25.00;1.00;;;;;;5060421;28;20184;-86
2023/06/10 07:45:23;;;;;;;10.83;7.23;;;25.10;1.00;;;;;;5059370;28;20192;-84
2023/06/10 07:47:48;;;;;;;8.23;6.83;;;25.10;1.00;;;;;;5058645;28;20252;-85
2023/06/10 07:50:14;;;;;;;8.20;6.20;;;25.20;1.00;;;;;;5072181;28;20168;-80
2023/06/10 07:52:40;;;;;;;7.67;6.23;;;25.40;1.00;;;;;;5074653;28;20185;-80
2023/06/10 07:55:06;;;;;;;8.83;5.70;;;25.40;99.90;;;;;;5073738;28;20165;-78
2023/06/10 07:57:36;;;;;;;7.50;5.90;;;25.50;46.30;;;;;;5073869;28;20177;-81
2023/06/10 08:00:04;;;;;;;7.03;6.20;;;25.60;1.00;;;;;;5065337;28;20220;-85
2023/06/10 08:02:29;;;;;;;9.70;6.53;;;25.70;1.00;;;;;;5061774;28;20161;-84
2023/06/10 08:04:55;;;;;;;10.93;7.10;;;25.80;99.90;;;;;;5057983;28;20228;-81
2023/06/10 08:07:22;;;;;;;8.37;6.20;;;26.10;99.90;;;;;;5058567;28;20168;-82
2023/06/10 08:09:48;;;;;;;9.00;6.60;;;26.20;47.80;;;;;;5058910;28;20181;-82
2023/06/10 08:12:15;;;;;;;8.37;6.40;;;26.10;99.90;;;;;;5039508;28;20194;-84
2023/06/10 08:14:41;;;;;;;6.93;6.23;;;26.40;99.90;;;;;;5056838;28;20755;-85
2023/06/10 08:17:06;;;;;;;6.97;6.20;;;26.50;99.90;;;;;;5039574;28;20157;-85
2023/06/10 08:19:32;;;;;;;8.90;6.00;;;26.80;99.90;;;;;;5057524;28;20618;-82
2023/06/10 08:21:58;;;;;;;10.05;6.20;;;27.00;99.90;;;;;;5060586;28;20202;-82
2023/06/10 08:24:25;;;;;;;8.48;6.22;;;27.20;99.90;;;;;;5061355;28;20200;-82
2023/06/10 08:26:50;;;;;;;8.23;6.37;;;27.10;1.00;;;;;;5061485;28;20161;-78
2023/06/10 08:29:16;;;;;;;6.65;5.95;;;26.90;1.00;;;;;;5061535;28;20316;-79
2023/06/10 08:31:44;;;;;;;11.40;6.28;;;27.10;99.90;;;;;;5060444;28;20215;-82
2023/06/10 08:34:10;;;;;;;7.22;6.13;;;27.20;1.00;;;;;;5058302;28;20173;-81
2023/06/10 08:36:35;;;;;;;6.93;6.22;;;27.30;99.90;;;;;;5057315;28;20629;-83
2023/06/10 08:39:01;;;;;;;8.20;6.10;;;27.50;1.00;;;;;;5057443;28;20287;-85
2023/06/10 08:41:30;;;;;;;7.20;6.50;;;27.70;1.00;;;;;;5057125;28;20659;-83
2023/06/10 08:44:01;;;;;;;12.32;7.43;;;27.80;99.90;;;;;;5038375;28;20169;-82
2023/06/10 08:46:32;;;;;;;12.55;8.10;;;27.80;1.00;;;;;;5038290;28;20204;-83
2023/06/10 08:49:03;;;;;;;10.45;7.22;;;27.60;99.90;;;;;;5058076;28;20161;-83
2023/06/10 08:51:32;;;;;;;10.43;6.60;;;27.70;1.00;;;;;;5055587;28;20252;-86
2023/06/10 08:54:15;;;;;;;6.63;5.93;;;28.00;64.90;;;;;;5057195;28;20163;-83
2023/06/10 08:56:42;;;;;;;7.75;6.15;;;27.90;99.90;;;;;;5056080;28;20161;-82
2023/06/10 08:59:09;;;;;;;8.25;5.72;;;27.90;99.90;;;;;;5056115;28;20236;-84
2023/06/10 09:01:35;;;;;;;6.25;5.43;;;28.10;44.20;;;;;;5055666;28;20175;-83
2023/06/10 09:04:02;;;;;;;8.05;6.18;;;28.00;1.00;;;;;;5025280;28;20195;-87
2023/06/10 09:06:28;;;;;;;7.97;5.78;;;28.10;26.00;;;;;;5060082;28;20180;-83
2023/06/10 09:08:57;;;;;;;8.10;5.80;;;28.00;1.00;;;;;;5038361;28;20180;-87
2023/06/10 09:11:22;;;;;;;6.60;5.32;;;27.80;1.00;;;;;;5055752;28;20251;-84
2023/06/10 09:13:48;;;;;;;7.88;5.63;;;27.80;99.90;;;;;;5039651;28;20161;-81
2023/06/10 09:16:15;;;;;;;6.65;5.53;;;28.10;1.00;;;;;;5040419;28;20176;-88
2023/06/10 09:18:42;;;;;;;7.10;5.50;;;28.10;1.00;;;;;;5056793;28;20169;-82
2023/06/10 09:21:07;;;;;;;7.70;5.43;;;28.10;1.00;;;;;;5058596;28;20185;-82
2023/06/10 09:23:34;;;;;;;7.72;4.97;;;28.20;99.90;;;;;;5060706;28;20180;-82
2023/06/10 09:26:03;;;;;;;5.80;5.25;;;28.50;99.90;;;;;;5045111;28;20205;-83
2023/06/10 09:28:29;;;;;;;7.63;5.85;;;28.80;99.90;;;;;;5067848;28;20173;-85
2023/06/10 09:31:08;;;;;;;6.78;5.70;;;29.10;1.00;;;;;;5065063;28;20191;-84
2023/06/10 09:33:40;;;;;;;7.75;6.35;;;29.20;1.00;;;;;;5063856;28;20206;-88
2023/06/10 09:36:07;;;;;;;6.45;5.30;;;29.40;1.00;;;;;;5065417;28;20176;-90
2023/06/10 09:38:56;;;;;;;7.55;5.88;;;29.30;1.00;;;;;;5060042;28;20191;-80
2023/06/10 09:41:35;;;;;;;13.48;5.65;;;29.30;99.90;;;;;;5069600;28;20193;-83
2023/06/10 09:44:08;;;;;;;9.68;5.50;;;29.20;99.90;;;;;;5077906;28;20206;-84
2023/06/10 09:46:35;;;;;;;11.80;5.60;;;29.30;99.90;;;;;;5061155;28;20192;-82
2023/06/10 09:49:10;;;;;;;7.57;5.45;;;29.40;99.90;;;;;;5077605;28;20267;-83
2023/06/10 09:51:55;;;;;;;9.95;5.45;;;29.60;12.60;;;;;;5078162;28;20160;-87
2023/06/10 09:54:21;;;;;;;7.10;5.68;;;29.60;1.00;;;;;;5077789;28;20218;-82
2023/06/10 09:56:52;;;;;;;6.68;5.70;;;29.80;1.00;;;;;;5076964;28;20172;-84
2023/06/10 09:59:38;;;;;;;8.95;5.75;;;29.90;1.00;;;;;;5076400;28;20224;-83
2023/06/10 10:02:20;;;;;;;9.23;5.97;;;29.20;1.00;;;;;;5076263;28;20185;-86
2023/06/10 10:04:47;;;;;;;8.43;5.40;;;29.10;1.00;;;;;;5062090;28;20189;-87
2023/06/10 10:07:16;;;;;;;9.63;5.40;;;29.20;1.00;;;;;;5042673;28;20173;-89
2023/06/10 10:13:04;;;;;;;6.40;5.80;;;29.30;1.00;;;;;;5061600;28;20176;-88
2023/06/10 10:15:34;;;;;;;9.70;5.55;;;29.10;1.00;;;;;;5059547;28;20165;-90
2023/06/10 10:18:17;;;;;;;5.65;5.00;;;29.20;1.00;;;;;;5061903;28;20153;-86
2023/06/10 10:20:55;;;;;;;8.85;5.97;;;29.30;1.00;;;;;;5069249;28;20185;-89
2023/06/10 10:23:59;;;;;;;6.18;5.00;;;29.50;1.00;;;;;;5067314;28;20184;-84
2023/06/10 10:26:26;;;;;;;7.25;5.93;;;29.40;1.00;;;;;;5081047;28;20183;-87
2023/06/10 10:29:10;;;;;;;8.43;5.45;;;29.40;1.00;;;;;;5077809;28;20192;-85
2023/06/10 10:31:40;;;;;;;6.82;5.47;;;29.50;99.90;;;;;;5068107;28;20264;-88
2023/06/10 10:34:19;;;;;;;7.93;5.53;;;29.40;99.90;;;;;;5050110;28;20175;-90
2023/06/10 10:36:46;;;;;;;6.85;5.35;;;29.20;99.90;;;;;;5053897;28;20164;-88
2023/06/10 10:39:12;;;;;;;7.82;5.30;;;29.30;99.90;;;;;;5079030;28;20156;-87
2023/06/10 10:41:58;;;;;;;9.43;5.00;;;29.30;99.90;;;;;;5079323;28;20169;-86
2023/06/10 10:44:35;;;;;;;8.27;5.53;;;29.20;99.90;;;;;;5080114;28;20185;-81
2023/06/10 10:50:30;;;;;;;9.35;5.60;;;28.90;99.90;;;;;;5079716;28;20172;-86
2023/06/10 10:53:05;;;;;;;8.10;4.82;;;29.10;99.90;;;;;;5055122;28;20169;-85
2023/06/10 10:55:33;;;;;;;7.82;5.05;;;29.10;1.40;;;;;;5064325;28;20246;-89
2023/06/10 10:58:07;;;;;;;5.90;5.30;;;29.20;1.00;;;;;;5064308;28;20160;-88
2023/06/10 11:00:44;;;;;;;8.18;5.65;;;29.40;1.00;;;;;;5045102;28;20216;-88
2023/06/10 11:03:27;;;;;;;8.32;5.50;;;29.50;1.00;;;;;;5044826;28;20163;-87
2023/06/10 11:05:57;;;;;;;6.65;5.10;;;29.80;1.00;;;;;;5063539;28;20207;-89
2023/06/10 11:08:29;;;;;;;7.93;5.40;;;30.20;1.00;;;;;;5063320;28;20169;-80
2023/06/10 11:10:54;;;;;;;24.42;6.05;;;30.20;1.00;;;;;;5071057;28;20173;-88
2023/06/10 11:13:22;;;;;;;8.02;5.03;;;30.20;1.00;;;;;;5072965;28;20236;-86
2023/06/10 11:15:51;;;;;;;14.30;6.03;;;30.30;1.00;;;;;;5074831;28;20173;-83
2023/06/10 11:18:27;;;;;;;10.45;5.40;;;30.50;1.00;;;;;;5078894;28;20560;-86
2023/06/10 11:20:58;;;;;;;5.95;4.68;;;30.10;1.00;;;;;;5059371;28;20184;-84
2023/06/10 11:23:34;;;;;;;10.90;5.57;;;29.90;99.90;;;;;;5075769;28;20208;-82
2023/06/10 11:26:40;;;;;;;8.73;4.88;;;29.90;1.00;;;;;;5075421;28;20196;-84
2023/06/10 11:29:08;;;;;;;6.03;4.70;;;29.80;99.90;;;;;;5043749;28;20227;-84
2023/06/10 11:31:38;;;;;;;8.82;4.80;;;29.90;99.90;;;;;;5050459;28;20169;-85
2023/06/10 11:34:06;;;;;;;5.90;4.65;;;29.90;99.90;;;;;;5068337;28;20176;-86
2023/06/10 11:36:34;;;;;;;7.50;4.32;;;29.90;99.90;;;;;;5052184;28;20169;-84
2023/06/10 11:39:08;;;;;;;16.15;5.40;;;29.90;99.90;;;;;;5068175;28;20169;-81
2023/06/10 11:41:36;;;;;;;6.00;4.50;;;29.90;99.90;;;;;;5071136;28;20181;-84
2023/06/10 11:44:10;;;;;;;5.55;4.65;;;30.20;99.90;;;;;;5050906;28;20542;-84
2023/06/10 11:46:36;;;;;;;11.90;5.18;;;30.60;99.90;;;;;;5067053;28;20177;-78
2023/06/10 11:49:03;;;;;;;6.30;4.78;;;30.60;99.90;;;;;;5072282;28;20169;-83
2023/06/10 11:51:40;;;;;;;8.50;4.97;;;30.20;99.90;;;;;;5075894;28;20165;-87
2023/06/10 11:54:08;;;;;;;7.97;5.80;;;30.30;99.90;;;;;;5071232;28;20228;-87
2023/06/10 11:56:35;;;;;;;5.85;5.35;;;30.30;99.90;;;;;;5047790;28;20162;-88
2023/06/10 11:59:06;;;;;;;6.43;5.60;;;30.30;99.90;;;;;;5075954;28;20232;-83
2023/06/10 12:01:45;;;;;;;7.10;5.90;;;30.50;99.90;;;;;;5069958;28;20157;-83
2023/06/10 12:04:32;;;;;;;9.05;5.13;;;30.60;99.90;;;;;;5071399;28;20185;-89
2023/06/10 12:06:59;;;;;;;6.78;5.22;;;30.20;99.90;;;;;;5063367;28;20169;-84
2023/06/10 12:09:29;;;;;;;45.60;8.98;;;30.10;99.90;;;;;;5039276;28;20181;-82
2023/06/10 12:12:03;;;;;;;11.48;5.68;;;30.60;99.90;;;;;;5058115;28;20181;-89
2023/06/10 12:14:57;;;;;;;8.52;5.32;;;30.70;99.90;;;;;;5068619;28;20173;-85
2023/06/10 12:17:32;;;;;;;7.05;5.15;;;30.60;99.90;;;;;;5054821;28;20165;-84
2023/06/10 12:20:00;;;;;;;7.82;5.57;;;30.70;99.90;;;;;;5036113;28;20165;-84
2023/06/10 12:22:26;;;;;;;10.88;6.13;;;30.70;99.90;;;;;;5047307;28;20177;-83
2023/06/10 12:25:04;;;;;;;7.18;5.47;;;30.50;99.90;;;;;;5065559;28;20749;-86
2023/06/10 12:27:31;;;;;;;16.80;6.68;;;30.50;99.90;;;;;;5064018;28;20188;-80
2023/06/10 12:33:21;;;;;;;8.40;5.60;;;30.30;99.90;;;;;;5060494;28;20203;-87
2023/06/10 12:35:49;;;;;;;6.13;5.22;;;30.80;99.90;;;;;;5041243;28;20203;-85
2023/06/10 12:38:21;;;;;;;6.65;5.90;;;30.80;99.90;;;;;;5056509;28;20169;-85
2023/06/10 12:40:47;;;;;;;5.72;5.22;;;30.70;99.90;;;;;;5021962;28;20641;-87
2023/06/10 12:43:18;;;;;;;7.60;5.82;;;30.50;99.90;;;;;;5054533;28;20260;-86
2023/06/10 12:45:44;;;;;;;6.38;5.18;;;30.90;99.90;;;;;;5053620;28;20201;-82
2023/06/10 12:48:12;;;;;;;6.00;5.40;;;31.30;99.90;;;;;;5062734;28;20175;-81
2023/06/10 12:50:43;;;;;;;5.95;5.35;;;31.60;99.90;;;;;;5072668;28;20179;-86
2023/06/10 12:53:13;;;;;;;8.90;5.63;;;31.80;99.90;;;;;;5076377;28;20169;-83
2023/06/10 12:55:39;;;;;;;8.57;5.88;;;32.00;99.90;;;;;;5066682;28;20180;-85
2023/06/10 12:58:05;;;;;;;7.57;5.55;;;32.00;99.90;;;;;;5061431;28;20165;-83
2023/06/10 13:00:31;;;;;;;9.82;5.70;;;31.50;99.90;;;;;;5059263;28;20173;-84
2023/06/10 13:03:00;;;;;;;8.40;5.72;;;31.30;99.90;;;;;;5056985;28;20168;-81
2023/06/10 13:05:27;;;;;;;6.57;5.90;;;31.10;99.90;;;;;;5057238;28;20666;-84
2023/06/10 13:07:53;;;;;;;14.32;6.05;;;30.90;99.90;;;;;;5039755;28;20161;-85